Wetterdaten: aktuell Freitag, 20.04.2018 16:30
Datum Zeit Temp. A. Feuchte A. Luftdruck Regen Wind Richtung Richtung Taupunkt Windchill Windben
20.04.2018 16:30 25,4 C 33 % 1021,9 hPa 0,0 l/m 13,8 km/h (3 Bft) S-SO 151 7,9 C 25,4 C 20,9 km/h (4 Bft)
20.04.2018 16:29 25,4 C 34 % 1021,9 hPa 0,0 l/m 14,6 km/h (3 Bft) S-SO 155 8,4 C 25,4 C 19,3 km/h (3 Bft)
20.04.2018 16:28 25,4 C 37 % 1022,0 hPa 0,0 l/m 13,2 km/h (3 Bft) S-SO 159 9,6 C 25,4 C 17,7 km/h (3 Bft)
20.04.2018 16:27 25,4 C 38 % 1021,9 hPa 0,0 l/m 15,5 km/h (3 Bft) S-SO 147 10,0 C 25,4 C 19,3 km/h (3 Bft)
20.04.2018 16:26 25,3 C 33 % 1021,9 hPa 0,0 l/m 14,3 km/h (3 Bft) SO 144 7,9 C 25,3 C 19,3 km/h (3 Bft)
20.04.2018 16:25 25,3 C 36 % 1022,0 hPa 0,0 l/m 16,9 km/h (3 Bft) S-SO 160 9,1 C 25,3 C 24,1 km/h (4 Bft)
20.04.2018 16:24 25,3 C 37 % 1022,0 hPa 0,0 l/m 16,0 km/h (3 Bft) S-SO 149 9,6 C 25,3 C 24,1 km/h (4 Bft)
20.04.2018 16:23 25,4 C 36 % 1022,0 hPa 0,0 l/m 18,7 km/h (3 Bft) O-SO 106 9,2 C 25,4 C 30,6 km/h (5 Bft)
20.04.2018 16:22 25,4 C 35 % 1022,0 hPa 0,0 l/m 17,9 km/h (3 Bft) SO 129 8,8 C 25,4 C 22,5 km/h (4 Bft)
20.04.2018 16:21 25,5 C 34 % 1022,0 hPa 0,0 l/m 15,9 km/h (3 Bft) O-SO 117 8,5 C 25,5 C 20,9 km/h (4 Bft)
20.04.2018 16:20 25,4 C 35 % 1022,0 hPa 0,0 l/m 17,7 km/h (3 Bft) S-SO 163 8,8 C 25,4 C 25,7 km/h (4 Bft)
20.04.2018 16:19 25,4 C 34 % 1022,0 hPa 0,0 l/m 16,0 km/h (3 Bft) S-SO 155 8,4 C 25,4 C 29,0 km/h (5 Bft)
20.04.2018 16:18 25,3 C 33 % 1022,0 hPa 0,0 l/m 13,0 km/h (3 Bft) S-SO 159 7,9 C 25,3 C 16,1 km/h (3 Bft)
20.04.2018 16:17 25,3 C 32 % 1022,0 hPa 0,0 l/m 14,8 km/h (3 Bft) S-SO 155 7,4 C 25,3 C 22,5 km/h (4 Bft)
20.04.2018 16:16 25,3 C 32 % 1022,1 hPa 0,0 l/m 22,9 km/h (4 Bft) S-SO 161 7,4 C 25,3 C 27,4 km/h (5 Bft)
20.04.2018 16:15 25,3 C 33 % 1022,0 hPa 0,0 l/m 13,8 km/h (3 Bft) SO 146 7,9 C 25,3 C 22,5 km/h (4 Bft)
20.04.2018 16:13 25,2 C 31 % 1022,1 hPa 0,0 l/m 14,0 km/h (3 Bft) S-SO 148 6,9 C 25,2 C 19,3 km/h (3 Bft)
20.04.2018 16:12 25,2 C 36 % 1022,1 hPa 0,0 l/m 18,5 km/h (3 Bft) S-SO 148 9,1 C 25,2 C 22,5 km/h (4 Bft)
20.04.2018 16:11 25,2 C 36 % 1022,1 hPa 0,0 l/m 16,6 km/h (3 Bft) SO 140 9,1 C 25,2 C 20,9 km/h (4 Bft)
20.04.2018 16:10 25,3 C 35 % 1022,1 hPa 0,0 l/m 21,6 km/h (4 Bft) S-SO 159 8,7 C 25,3 C 27,4 km/h (5 Bft)
20.04.2018 16:09 25,3 C 34 % 1022,1 hPa 0,0 l/m 16,3 km/h (3 Bft) O-SO 114 8,3 C 25,3 C 22,5 km/h (4 Bft)
20.04.2018 16:08 25,3 C 35 % 1022,1 hPa 0,0 l/m 17,7 km/h (3 Bft) SO 144 8,7 C 25,3 C 27,4 km/h (5 Bft)
20.04.2018 16:07 25,3 C 34 % 1022,1 hPa 0,0 l/m 17,9 km/h (3 Bft) SO 144 8,3 C 25,3 C 22,5 km/h (4 Bft)
20.04.2018 16:06 25,4 C 37 % 1022,1 hPa 0,0 l/m 17,1 km/h (3 Bft) S-SO 156 9,6 C 25,4 C 22,5 km/h (4 Bft)
20.04.2018 16:05 25,4 C 37 % 1022,2 hPa 0,0 l/m 16,6 km/h (3 Bft) S-SO 148 9,6 C 25,4 C 20,9 km/h (4 Bft)
20.04.2018 16:04 25,3 C 34 % 1022,1 hPa 0,0 l/m 20,3 km/h (4 Bft) SO 146 8,3 C 25,3 C 29,0 km/h (5 Bft)
20.04.2018 16:03 25,3 C 34 % 1022,2 hPa 0,0 l/m 15,9 km/h (3 Bft) S-SO 154 8,3 C 25,3 C 25,7 km/h (4 Bft)
20.04.2018 16:01 25,3 C 30 % 1022,2 hPa 0,0 l/m 17,1 km/h (3 Bft) S-SO 150 6,5 C 25,3 C 20,9 km/h (4 Bft)
20.04.2018 16:00 25,4 C 34 % 1022,2 hPa 0,0 l/m 19,5 km/h (3 Bft) S-SO 163 8,4 C 25,4 C 29,0 km/h (5 Bft)
20.04.2018 15:59 25,4 C 34 % 1022,2 hPa 0,0 l/m 19,5 km/h (3 Bft) SO 138 8,4 C 25,4 C 24,1 km/h (4 Bft)
20.04.2018 15:58 25,4 C 30 % 1022,2 hPa 0,0 l/m 20,6 km/h (4 Bft) SO 138 6,6 C 25,4 C 24,1 km/h (4 Bft)
20.04.2018 15:57 25,4 C 35 % 1022,2 hPa 0,0 l/m 19,7 km/h (3 Bft) SO 134 8,8 C 25,4 C 24,1 km/h (4 Bft)
20.04.2018 15:56 25,3 C 33 % 1022,2 hPa 0,0 l/m 16,1 km/h (3 Bft) SO 135 7,9 C 25,3 C 22,5 km/h (4 Bft)
20.04.2018 15:55 25,3 C 34 % 1022,3 hPa 0,0 l/m 20,6 km/h (4 Bft) S-SO 151 8,3 C 25,3 C 27,4 km/h (5 Bft)
20.04.2018 15:54 25,3 C 34 % 1022,2 hPa 0,0 l/m 25,1 km/h (4 Bft) SO 140 8,3 C 25,3 C 33,8 km/h (5 Bft)
20.04.2018 15:53 25,3 C 31 % 1022,2 hPa 0,0 l/m 16,1 km/h (3 Bft) SO 142 6,9 C 25,3 C 22,5 km/h (4 Bft)
20.04.2018 15:52 25,3 C 31 % 1022,3 hPa 0,0 l/m 15,3 km/h (3 Bft) S-SO 153 6,9 C 25,3 C 24,1 km/h (4 Bft)
20.04.2018 15:51 25,4 C 31 % 1022,2 hPa 0,0 l/m 13,7 km/h (3 Bft) W-SW 242 7,0 C 25,4 C 20,9 km/h (4 Bft)
20.04.2018 15:50 25,4 C 31 % 1022,3 hPa 0,0 l/m 20,2 km/h (4 Bft) S-SO 151 7,0 C 25,4 C 27,4 km/h (5 Bft)
20.04.2018 15:49 25,4 C 33 % 1022,3 hPa 0,0 l/m 15,2 km/h (3 Bft) S-SO 161 7,9 C 25,4 C 19,3 km/h (3 Bft)
20.04.2018 15:48 25,3 C 33 % 1022,4 hPa 0,0 l/m 18,2 km/h (3 Bft) S-SO 159 7,9 C 25,3 C 24,1 km/h (4 Bft)
20.04.2018 15:47 25,3 C 33 % 1022,4 hPa 0,0 l/m 20,7 km/h (4 Bft) S-SO 151 7,9 C 25,3 C 32,2 km/h (5 Bft)
20.04.2018 15:46 25,3 C 36 % 1022,4 hPa 0,0 l/m 19,3 km/h (3 Bft) SO 124 9,1 C 25,3 C 24,1 km/h (4 Bft)
20.04.2018 15:45 25,3 C 37 % 1022,4 hPa 0,0 l/m 19,8 km/h (3 Bft) SO 146 9,6 C 25,3 C 27,4 km/h (5 Bft)
20.04.2018 15:44 25,3 C 38 % 1022,4 hPa 0,0 l/m 18,1 km/h (3 Bft) SO 142 9,9 C 25,3 C 22,5 km/h (4 Bft)
20.04.2018 15:43 25,3 C 38 % 1022,4 hPa 0,0 l/m 19,3 km/h (3 Bft) SO 138 9,9 C 25,3 C 24,1 km/h (4 Bft)
20.04.2018 15:42 25,3 C 34 % 1022,5 hPa 0,0 l/m 14,2 km/h (3 Bft) S-SO 152 8,3 C 25,3 C 17,7 km/h (3 Bft)
20.04.2018 15:41 25,3 C 33 % 1022,4 hPa 0,0 l/m 15,2 km/h (3 Bft) S-SO 154 7,9 C 25,3 C 20,9 km/h (4 Bft)
20.04.2018 15:40 25,3 C 32 % 1022,5 hPa 0,0 l/m 13,8 km/h (3 Bft) SO 140 7,4 C 25,3 C 20,9 km/h (4 Bft)
20.04.2018 15:39 25,4 C 37 % 1022,4 hPa 0,0 l/m 13,0 km/h (3 Bft) S 172 9,6 C 25,4 C 19,3 km/h (3 Bft)
20.04.2018 15:38 25,3 C 35 % 1022,5 hPa 0,0 l/m 11,0 km/h (2 Bft) S-SO 152 8,7 C 25,3 C 12,9 km/h (3 Bft)
20.04.2018 15:37 25,3 C 39 % 1022,5 hPa 0,0 l/m 14,9 km/h (3 Bft) S-SO 167 10,3 C 25,3 C 17,7 km/h (3 Bft)
20.04.2018 15:36 25,3 C 37 % 1022,4 hPa 0,0 l/m 12,5 km/h (2 Bft) SO 130 9,6 C 25,3 C 20,9 km/h (4 Bft)
20.04.2018 15:35 25,4 C 36 % 1022,5 hPa 0,0 l/m 13,9 km/h (3 Bft) SO 130 9,2 C 25,4 C 20,9 km/h (4 Bft)
20.04.2018 15:34 25,4 C 34 % 1022,5 hPa 0,0 l/m 16,4 km/h (3 Bft) O-SO 120 8,4 C 25,4 C 20,9 km/h (4 Bft)
20.04.2018 15:33 25,3 C 36 % 1022,6 hPa 0,0 l/m 19,2 km/h (3 Bft) S-SO 153 9,1 C 25,3 C 24,1 km/h (4 Bft)
20.04.2018 15:32 25,2 C 35 % 1022,5 hPa 0,0 l/m 21,0 km/h (4 Bft) S-SO 153 8,6 C 25,2 C 29,0 km/h (5 Bft)
20.04.2018 15:31 25,2 C 35 % 1022,5 hPa 0,0 l/m 15,1 km/h (3 Bft) S-SO 150 8,6 C 25,2 C 20,9 km/h (4 Bft)
20.04.2018 15:30 25,2 C 36 % 1022,5 hPa 0,0 l/m 13,9 km/h (3 Bft) S 180 9,1 C 25,2 C 19,3 km/h (3 Bft)
20.04.2018 15:29 25,2 C 35 % 1022,6 hPa 0,0 l/m 18,6 km/h (3 Bft) S-SO 161 8,6 C 25,2 C 25,7 km/h (4 Bft)
20.04.2018 15:28 25,2 C 36 % 1022,6 hPa 0,0 l/m 12,9 km/h (3 Bft) S-SO 159 9,1 C 25,2 C 19,3 km/h (3 Bft)
20.04.2018 15:27 25,2 C 36 % 1022,6 hPa 0,0 l/m 16,2 km/h (3 Bft) S-SO 164 9,1 C 25,2 C 20,9 km/h (4 Bft)
20.04.2018 15:26 25,2 C 36 % 1022,6 hPa 0,0 l/m 17,7 km/h (3 Bft) S 169 9,1 C 25,2 C 22,5 km/h (4 Bft)
20.04.2018 15:25 25,2 C 38 % 1022,6 hPa 0,0 l/m 15,2 km/h (3 Bft) S-SO 164 9,9 C 25,2 C 19,3 km/h (3 Bft)
20.04.2018 15:23 25,2 C 37 % 1022,6 hPa 0,0 l/m 16,0 km/h (3 Bft) O-SO 117 9,5 C 25,2 C 25,7 km/h (4 Bft)
20.04.2018 15:22 25,3 C 37 % 1022,6 hPa 0,0 l/m 13,4 km/h (3 Bft) SO 126 9,6 C 25,3 C 19,3 km/h (3 Bft)
20.04.2018 15:21 25,3 C 36 % 1022,7 hPa 0,0 l/m 17,3 km/h (3 Bft) S-SO 153 9,1 C 25,3 C 27,4 km/h (5 Bft)
20.04.2018 15:20 25,4 C 40 % 1022,7 hPa 0,0 l/m 19,0 km/h (3 Bft) O-SO 120 10,8 C 25,4 C 22,5 km/h (4 Bft)
20.04.2018 15:19 25,4 C 40 % 1022,7 hPa 0,0 l/m 15,5 km/h (3 Bft) S-SO 156 10,8 C 25,4 C 17,7 km/h (3 Bft)
20.04.2018 15:18 25,3 C 40 % 1022,7 hPa 0,0 l/m 17,5 km/h (3 Bft) O-SO 112 10,7 C 25,3 C 22,5 km/h (4 Bft)
20.04.2018 15:17 25,3 C 40 % 1022,7 hPa 0,0 l/m 13,0 km/h (3 Bft) SO 136 10,7 C 25,3 C 20,9 km/h (4 Bft)
20.04.2018 15:16 25,3 C 37 % 1022,7 hPa 0,0 l/m 10,4 km/h (2 Bft) O 99 9,6 C 25,3 C 19,3 km/h (3 Bft)
20.04.2018 15:15 25,3 C 38 % 1022,7 hPa 0,0 l/m 14,8 km/h (3 Bft) SO 130 9,9 C 25,3 C 22,5 km/h (4 Bft)
20.04.2018 15:14 25,3 C 40 % 1022,7 hPa 0,0 l/m 16,7 km/h (3 Bft) SO 146 10,7 C 25,3 C 20,9 km/h (4 Bft)
20.04.2018 15:13 25,3 C 37 % 1022,7 hPa 0,0 l/m 14,9 km/h (3 Bft) SO 128 9,6 C 25,3 C 17,7 km/h (3 Bft)
20.04.2018 15:12 25,2 C 36 % 1022,7 hPa 0,0 l/m 13,6 km/h (3 Bft) S-SO 155 9,1 C 25,2 C 20,9 km/h (4 Bft)
20.04.2018 15:11 25,2 C 36 % 1022,7 hPa 0,0 l/m 14,1 km/h (3 Bft) S-SO 150 9,1 C 25,2 C 20,9 km/h (4 Bft)
20.04.2018 15:10 25,2 C 36 % 1022,8 hPa 0,0 l/m 18,5 km/h (3 Bft) S 182 9,1 C 25,2 C 27,4 km/h (5 Bft)
20.04.2018 15:09 25,2 C 35 % 1022,8 hPa 0,0 l/m 13,0 km/h (3 Bft) S-SO 153 8,6 C 25,2 C 20,9 km/h (4 Bft)
20.04.2018 15:08 25,2 C 37 % 1022,8 hPa 0,0 l/m 15,7 km/h (3 Bft) S 171 9,5 C 25,2 C 19,3 km/h (3 Bft)
20.04.2018 15:07 25,2 C 36 % 1022,8 hPa 0,0 l/m 17,1 km/h (3 Bft) S-SO 160 9,1 C 25,2 C 24,1 km/h (4 Bft)
20.04.2018 15:06 25,2 C 35 % 1022,9 hPa 0,0 l/m 17,4 km/h (3 Bft) S-SW 204 8,6 C 25,2 C 25,7 km/h (4 Bft)
20.04.2018 15:05 25,2 C 35 % 1022,9 hPa 0,0 l/m 16,2 km/h (3 Bft) S-SO 165 8,6 C 25,2 C 20,9 km/h (4 Bft)
20.04.2018 15:04 25,2 C 35 % 1022,9 hPa 0,0 l/m 16,6 km/h (3 Bft) S-SO 152 8,6 C 25,2 C 19,3 km/h (3 Bft)
20.04.2018 15:03 25,2 C 35 % 1022,8 hPa 0,0 l/m 14,2 km/h (3 Bft) S-SO 148 8,6 C 25,2 C 20,9 km/h (4 Bft)
20.04.2018 15:02 25,2 C 34 % 1022,9 hPa 0,0 l/m 15,0 km/h (3 Bft) S-SO 153 8,2 C 25,2 C 22,5 km/h (4 Bft)
20.04.2018 15:01 25,2 C 36 % 1022,9 hPa 0,0 l/m 15,5 km/h (3 Bft) S-SO 153 9,1 C 25,2 C 22,5 km/h (4 Bft)
20.04.2018 15:00 25,2 C 37 % 1022,9 hPa 0,0 l/m 13,8 km/h (3 Bft) SW 234 9,5 C 25,2 C 22,5 km/h (4 Bft)
20.04.2018 14:59 25,2 C 39 % 1022,9 hPa 0,0 l/m 12,4 km/h (2 Bft) O-NO 68 10,2 C 25,2 C 20,9 km/h (4 Bft)
20.04.2018 14:58 25,2 C 40 % 1022,9 hPa 0,0 l/m 15,9 km/h (3 Bft) O-SO 123 10,6 C 25,2 C 20,9 km/h (4 Bft)
20.04.2018 14:57 25,2 C 39 % 1022,9 hPa 0,0 l/m 15,9 km/h (3 Bft) S-SO 150 10,2 C 25,2 C 20,9 km/h (4 Bft)
20.04.2018 14:56 25,2 C 35 % 1023,0 hPa 0,0 l/m 12,2 km/h (2 Bft) S 181 8,6 C 25,2 C 19,3 km/h (3 Bft)
20.04.2018 14:55 25,2 C 36 % 1023,0 hPa 0,0 l/m 15,1 km/h (3 Bft) S-SO 165 9,1 C 25,2 C 24,1 km/h (4 Bft)
20.04.2018 14:54 25,2 C 36 % 1022,9 hPa 0,0 l/m 17,8 km/h (3 Bft) S-SO 155 9,1 C 25,2 C 25,7 km/h (4 Bft)
20.04.2018 14:53 25,2 C 39 % 1023,0 hPa 0,0 l/m 17,2 km/h (3 Bft) S-SO 155 10,2 C 25,2 C 20,9 km/h (4 Bft)
20.04.2018 14:52 25,2 C 37 % 1023,0 hPa 0,0 l/m 18,8 km/h (3 Bft) SO 145 9,5 C 25,2 C 24,1 km/h (4 Bft)
20.04.2018 14:51 25,2 C 34 % 1023,0 hPa 0,0 l/m 16,4 km/h (3 Bft) SO 142 8,2 C 25,2 C 20,9 km/h (4 Bft)
20.04.2018 14:50 25,2 C 36 % 1023,0 hPa 0,0 l/m 15,9 km/h (3 Bft) S-SO 159 9,1 C 25,2 C 19,3 km/h (3 Bft)
20.04.2018 14:49 25,2 C 37 % 1023,0 hPa 0,0 l/m 7,2 km/h (2 Bft) S-SO 161 9,5 C 25,2 C 11,3 km/h (2 Bft)
20.04.2018 14:48 25,2 C 38 % 1023,0 hPa 0,0 l/m 10,6 km/h (2 Bft) S 173 9,9 C 25,2 C 14,5 km/h (3 Bft)
_ Min-Zeit 04:07 15:58 16:26 - 21:30 - - 16:01 04:07 21:30
Minimum _ 11,9 C 30 % 1021,9 hPa - 0,0 km/h (0 Bft) - - 6,5 C 11,9 C 0,0 km/h (0 Bft)
_ Max-Zeit 16:21 04:09 17:01 17:00 15:54 - - 11:57 16:21 15:54
Maximum _ 25,5 C 76 % 1026,9 hPa 0,0 l/m 25,1 km/h
SO (4 Bft)
- - 14,7 C 25,5 C 33,8 km/h
SO (5 Bft)
Durchschnitt _ 18,4 C 58 % 1025,3 hPa #0,0 l/m 6,7 km/h (2 Bft) W-NW - 9,5 C 18,4 C 9,7 km/h (2 Bft)
Wetterstation Eggerszell